Padma — 2CWE8 — position and weather

sailwx.info

Track history (hours):
 
Tides and Currents Weather Stations Pressure Air Temp Water Temp Dewpoint Dewpoint Depression Visibility Wind Speed Wind Dir Waves Ship Positions

Padma

Last reported at 2017-Nov-09 21:19 UTC. Time now 2017-Dec-11 13:22 UTC.
Position N 37°18' W 000°47'.
Warning: this ship's position is 31 days out of date.

Length 25 m.

Type: Sailing vessel. MMSI: 235076308.

Date/timePositionNaut miles runAvg speedWind from/ knotsBaromVisibWave heightAir tempDewpointWater temp
2017-Nov-09 21:19N 37°18' W 000°47'198 8.8
2017-Nov-08 22:42N 39°24' E 002°28'2 7.9
2017-Nov-08 22:29N 39°25' E 002°30'4 8.1
2017-Nov-08 22:00N 39°28' E 002°34'4 8.0
2017-Nov-08 21:30N 39°31' E 002°37'2 3.7
2017-Nov-08 21:00N 39°32' E 002°38'2 3.5
2017-Nov-08 20:29N 39°34' E 002°38'0 0.0
2017-Nov-08 19:59N 39°34' E 002°38'0 0.0
2017-Nov-08 19:29N 39°34' E 002°38'0 0.0
2017-Nov-08 18:59N 39°34' E 002°38'0 0.0
2017-Nov-08 18:29N 39°34' E 002°38'0 0.0
2017-Nov-08 17:59N 39°34' E 002°38'0 0.0
2017-Nov-08 17:29N 39°34' E 002°38'0 0.0
2017-Nov-08 16:59N 39°34' E 002°38'0 0.0
2017-Nov-08 16:28N 39°34' E 002°38'0 0.0
2017-Nov-08 16:01N 39°34' E 002°38'0 0.6
2017-Nov-08 15:28N 39°34' E 002°38'0 0.0
2017-Nov-08 14:55N 39°34' E 002°38'0 0.0
2017-Nov-08 14:28N 39°34' E 002°38'0 0.0
2017-Nov-08 13:58N 39°34' E 002°38'0 0.0
2017-Nov-08 13:25N 39°34' E 002°38'0 0.0
2017-Nov-08 12:58N 39°34' E 002°38'0 0.0
2017-Nov-08 12:28N 39°34' E 002°38'0 0.0
2017-Nov-08 11:58N 39°34' E 002°38'0 0.0
2017-Nov-08 11:28N 39°34' E 002°38'0 0.0
2017-Nov-08 10:58N 39°34' E 002°38'0 0.0
2017-Nov-08 10:28N 39°34' E 002°38'0 0.0
2017-Nov-08 09:58N 39°34' E 002°38'0 0.0
2017-Nov-08 09:28N 39°34' E 002°38'0 0.0
2017-Nov-08 08:58N 39°34' E 002°38'0 0.0
2017-Nov-08 08:28N 39°34' E 002°38'0 0.0
2017-Nov-08 07:58N 39°34' E 002°38'0 0.0
2017-Nov-08 07:28N 39°34' E 002°38'0 0.0
2017-Nov-08 06:58N 39°34' E 002°38'0 0.0
2017-Nov-08 06:28N 39°34' E 002°38'0 0.0
2017-Nov-08 05:58N 39°34' E 002°38'0 0.0
2017-Nov-08 05:28N 39°34' E 002°38'0 0.0
2017-Nov-08 04:58N 39°34' E 002°38'0 0.0
2017-Nov-08 04:28N 39°34' E 002°38'0 0.0
2017-Nov-08 03:55N 39°34' E 002°38'0 0.0
2017-Nov-08 03:28N 39°34' E 002°38'0 0.0
2017-Nov-08 02:58N 39°34' E 002°38'0 0.0
2017-Nov-08 02:28N 39°34' E 002°38'0 0.0
2017-Nov-08 01:58N 39°34' E 002°38'0 0.0
2017-Nov-08 01:28N 39°34' E 002°38'0 0.0
2017-Nov-08 00:58N 39°34' E 002°38'0 0.0
2017-Nov-08 00:28N 39°34' E 002°38'0 0.0
2017-Nov-07 23:58N 39°34' E 002°38'0 0.0
2017-Nov-07 23:28N 39°34' E 002°38'0 0.0
2017-Nov-07 22:58N 39°34' E 002°38'0 0.0
2017-Nov-07 22:28N 39°34' E 002°38'0 0.0
2017-Nov-07 21:58N 39°34' E 002°38'0 0.0
2017-Nov-07 21:28N 39°34' E 002°38'0 0.0
2017-Nov-07 20:58N 39°34' E 002°38'0 0.0
2017-Nov-07 20:28N 39°34' E 002°38'0 0.0
2017-Nov-07 19:58N 39°34' E 002°38'0 0.0
2017-Nov-07 19:28N 39°34' E 002°38'0 0.0
2017-Nov-07 18:58N 39°34' E 002°38'0 0.0
2017-Nov-07 18:28N 39°34' E 002°38'0 0.0
2017-Nov-07 17:58N 39°34' E 002°38'0 0.0
2017-Nov-07 17:28N 39°34' E 002°38'0 0.0
2017-Nov-07 16:58N 39°34' E 002°38'1 2.5
2017-Nov-07 16:30N 39°33' E 002°39'1 2.1
2017-Nov-07 16:00N 39°32' E 002°40'0 1.0
2017-Nov-07 15:30N 39°32' E 002°39'1 1.0
2017-Nov-07 15:00N 39°33' E 002°39'1 1.5
2017-Nov-07 14:30N 39°33' E 002°39'0 0.4
2017-Nov-07 14:00N 39°33' E 002°39'1 1.5
2017-Nov-07 13:29N 39°34' E 002°38'0 0.0
2017-Nov-07 12:59N 39°34' E 002°38'0 0.0
2017-Nov-07 12:29N 39°34' E 002°38'0 0.0
2017-Nov-07 11:59N 39°34' E 002°38'0 0.0
2017-Nov-07 11:23N 39°34' E 002°38'0 0.0
2017-Nov-07 10:59N 39°34' E 002°38'0 0.0
2017-Nov-07 10:29N 39°34' E 002°38'  
2017-Nov-03 20:41N 39°34' E 002°38'0 0.0
2017-Nov-03 20:29N 39°34' E 002°38'0 0.0
2017-Nov-03 19:59N 39°34' E 002°38'0 0.0
2017-Nov-03 19:29N 39°34' E 002°38'0 0.0
2017-Nov-03 18:59N 39°34' E 002°38'0 0.0
2017-Nov-03 18:30N 39°34' E 002°38'0 0.0
2017-Nov-03 18:00N 39°34' E 002°38'0 0.0
2017-Nov-03 17:30N 39°34' E 002°38'0 0.0
2017-Nov-03 16:59N 39°34' E 002°38'0 0.0
2017-Nov-03 16:29N 39°34' E 002°38'0 0.0
2017-Nov-03 15:59N 39°34' E 002°38'0 0.0
2017-Nov-03 15:29N 39°34' E 002°38'0 0.0
2017-Nov-03 15:00N 39°34' E 002°38'0 0.0
2017-Nov-03 14:28N 39°34' E 002°38'0 0.0
2017-Nov-03 13:58N 39°34' E 002°38'0 0.0
2017-Nov-03 13:28N 39°34' E 002°38'0 0.0
2017-Nov-03 12:58N 39°34' E 002°38'0 0.0
2017-Nov-03 12:28N 39°34' E 002°38'0 0.0
2017-Nov-03 11:58N 39°34' E 002°38'0 0.0
2017-Nov-03 11:28N 39°34' E 002°38'0 0.0
2017-Nov-03 10:58N 39°34' E 002°38'0 0.0
2017-Nov-03 10:28N 39°34' E 002°38'0 0.0
2017-Nov-03 09:58N 39°34' E 002°38'0 0.0
2017-Nov-03 09:28N 39°34' E 002°38'0 0.0
2017-Nov-03 08:58N 39°34' E 002°38'0 0.0
2017-Nov-03 08:28N 39°34' E 002°38'0 0.0
2017-Nov-03 07:58N 39°34' E 002°38'  
2017-Oct-31 19:33N 39°34' E 002°38'0 0.0
2017-Oct-31 19:30N 39°34' E 002°38'0 0.0
2017-Oct-31 19:00N 39°34' E 002°38'0 0.0
2017-Oct-31 18:30N 39°34' E 002°38'0 0.0
2017-Oct-31 18:00N 39°34' E 002°38'0 0.0
2017-Oct-31 17:30N 39°34' E 002°38'0 0.0
2017-Oct-31 17:00N 39°34' E 002°38'0 0.0
2017-Oct-31 16:27N 39°34' E 002°38'0 0.0
2017-Oct-31 16:00N 39°34' E 002°38'0 0.0
2017-Oct-31 15:30N 39°34' E 002°38'0 0.0
2017-Oct-31 15:00N 39°34' E 002°38'0 0.0
2017-Oct-31 14:30N 39°34' E 002°38'0 0.0
2017-Oct-31 14:00N 39°34' E 002°38'0 0.0
2017-Oct-31 13:30N 39°34' E 002°38'0 0.0
2017-Oct-31 13:00N 39°34' E 002°38'0 0.0
2017-Oct-31 12:30N 39°34' E 002°38'0 0.0
2017-Oct-31 12:00N 39°34' E 002°38'0 0.0
2017-Oct-31 11:30N 39°34' E 002°38'0 0.0
2017-Oct-31 10:57N 39°34' E 002°38'0 0.0
2017-Oct-31 10:30N 39°34' E 002°38'0 0.0
2017-Oct-31 10:00N 39°34' E 002°38'0 0.0
2017-Oct-31 09:23N 39°34' E 002°38'0 0.0
2017-Oct-31 08:59N 39°34' E 002°38'0 0.0
2017-Oct-31 08:29N 39°34' E 002°38'  
Track history (hours):
 
Tides and Currents Weather Stations Pressure Air Temp Water Temp Dewpoint Dewpoint Depression Visibility Wind Speed Wind Dir Waves Ship Positions

Padma

Last reported at 2017-Nov-09 21:19 UTC. Time now 2017-Dec-11 13:22 UTC.
Position N 37°18' W 000°47'.
Warning: this ship's position is 31 days out of date.

Length 25 m.

Type: Sailing vessel. MMSI: 235076308.

Date/timePositionNaut miles runAvg speedWind from/ knotsBaromVisibWave heightAir tempDewpointWater temp
2017-Nov-09 21:19N 37°18' W 000°47'198 8.8
2017-Nov-08 22:42N 39°24' E 002°28'2 7.9
2017-Nov-08 22:29N 39°25' E 002°30'4 8.1
2017-Nov-08 22:00N 39°28' E 002°34'4 8.0
2017-Nov-08 21:30N 39°31' E 002°37'2 3.7
2017-Nov-08 21:00N 39°32' E 002°38'2 3.5
2017-Nov-08 20:29N 39°34' E 002°38'0 0.0
2017-Nov-08 19:59N 39°34' E 002°38'0 0.0
2017-Nov-08 19:29N 39°34' E 002°38'0 0.0
2017-Nov-08 18:59N 39°34' E 002°38'0 0.0
2017-Nov-08 18:29N 39°34' E 002°38'0 0.0
2017-Nov-08 17:59N 39°34' E 002°38'0 0.0
2017-Nov-08 17:29N 39°34' E 002°38'0 0.0
2017-Nov-08 16:59N 39°34' E 002°38'0 0.0
2017-Nov-08 16:28N 39°34' E 002°38'0 0.0
2017-Nov-08 16:01N 39°34' E 002°38'0 0.6
2017-Nov-08 15:28N 39°34' E 002°38'0 0.0
2017-Nov-08 14:55N 39°34' E 002°38'0 0.0
2017-Nov-08 14:28N 39°34' E 002°38'0 0.0
2017-Nov-08 13:58N 39°34' E 002°38'0 0.0
2017-Nov-08 13:25N 39°34' E 002°38'0 0.0
2017-Nov-08 12:58N 39°34' E 002°38'0 0.0
2017-Nov-08 12:28N 39°34' E 002°38'0 0.0
2017-Nov-08 11:58N 39°34' E 002°38'0 0.0
2017-Nov-08 11:28N 39°34' E 002°38'0 0.0
2017-Nov-08 10:58N 39°34' E 002°38'0 0.0
2017-Nov-08 10:28N 39°34' E 002°38'0 0.0
2017-Nov-08 09:58N 39°34' E 002°38'0 0.0
2017-Nov-08 09:28N 39°34' E 002°38'0 0.0
2017-Nov-08 08:58N 39°34' E 002°38'0 0.0
2017-Nov-08 08:28N 39°34' E 002°38'0 0.0
2017-Nov-08 07:58N 39°34' E 002°38'0 0.0
2017-Nov-08 07:28N 39°34' E 002°38'0 0.0
2017-Nov-08 06:58N 39°34' E 002°38'0 0.0
2017-Nov-08 06:28N 39°34' E 002°38'0 0.0
2017-Nov-08 05:58N 39°34' E 002°38'0 0.0
2017-Nov-08 05:28N 39°34' E 002°38'0 0.0
2017-Nov-08 04:58N 39°34' E 002°38'0 0.0
2017-Nov-08 04:28N 39°34' E 002°38'0 0.0
2017-Nov-08 03:55N 39°34' E 002°38'0 0.0
2017-Nov-08 03:28N 39°34' E 002°38'0 0.0
2017-Nov-08 02:58N 39°34' E 002°38'0 0.0
2017-Nov-08 02:28N 39°34' E 002°38'0 0.0
2017-Nov-08 01:58N 39°34' E 002°38'0 0.0
2017-Nov-08 01:28N 39°34' E 002°38'0 0.0
2017-Nov-08 00:58N 39°34' E 002°38'0 0.0
2017-Nov-08 00:28N 39°34' E 002°38'0 0.0
2017-Nov-07 23:58N 39°34' E 002°38'0 0.0
2017-Nov-07 23:28N 39°34' E 002°38'0 0.0
2017-Nov-07 22:58N 39°34' E 002°38'0 0.0
2017-Nov-07 22:28N 39°34' E 002°38'0 0.0
2017-Nov-07 21:58N 39°34' E 002°38'0 0.0
2017-Nov-07 21:28N 39°34' E 002°38'0 0.0
2017-Nov-07 20:58N 39°34' E 002°38'0 0.0
2017-Nov-07 20:28N 39°34' E 002°38'0 0.0
2017-Nov-07 19:58N 39°34' E 002°38'0 0.0
2017-Nov-07 19:28N 39°34' E 002°38'0 0.0
2017-Nov-07 18:58N 39°34' E 002°38'0 0.0
2017-Nov-07 18:28N 39°34' E 002°38'0 0.0
2017-Nov-07 17:58N 39°34' E 002°38'0 0.0
2017-Nov-07 17:28N 39°34' E 002°38'0 0.0
2017-Nov-07 16:58N 39°34' E 002°38'1 2.5
2017-Nov-07 16:30N 39°33' E 002°39'1 2.1
2017-Nov-07 16:00N 39°32' E 002°40'0 1.0
2017-Nov-07 15:30N 39°32' E 002°39'1 1.0
2017-Nov-07 15:00N 39°33' E 002°39'1 1.5
2017-Nov-07 14:30N 39°33' E 002°39'0 0.4
2017-Nov-07 14:00N 39°33' E 002°39'1 1.5
2017-Nov-07 13:29N 39°34' E 002°38'0 0.0
2017-Nov-07 12:59N 39°34' E 002°38'0 0.0
2017-Nov-07 12:29N 39°34' E 002°38'0 0.0
2017-Nov-07 11:59N 39°34' E 002°38'0 0.0
2017-Nov-07 11:23N 39°34' E 002°38'0 0.0
2017-Nov-07 10:59N 39°34' E 002°38'0 0.0
2017-Nov-07 10:29N 39°34' E 002°38'  
2017-Nov-03 20:41N 39°34' E 002°38'0 0.0
2017-Nov-03 20:29N 39°34' E 002°38'0 0.0
2017-Nov-03 19:59N 39°34' E 002°38'0 0.0
2017-Nov-03 19:29N 39°34' E 002°38'0 0.0
2017-Nov-03 18:59N 39°34' E 002°38'0 0.0
2017-Nov-03 18:30N 39°34' E 002°38'0 0.0
2017-Nov-03 18:00N 39°34' E 002°38'0 0.0
2017-Nov-03 17:30N 39°34' E 002°38'0 0.0
2017-Nov-03 16:59N 39°34' E 002°38'0 0.0
2017-Nov-03 16:29N 39°34' E 002°38'0 0.0
2017-Nov-03 15:59N 39°34' E 002°38'0 0.0
2017-Nov-03 15:29N 39°34' E 002°38'0 0.0
2017-Nov-03 15:00N 39°34' E 002°38'0 0.0
2017-Nov-03 14:28N 39°34' E 002°38'0 0.0
2017-Nov-03 13:58N 39°34' E 002°38'0 0.0
2017-Nov-03 13:28N 39°34' E 002°38'0 0.0
2017-Nov-03 12:58N 39°34' E 002°38'0 0.0
2017-Nov-03 12:28N 39°34' E 002°38'0 0.0
2017-Nov-03 11:58N 39°34' E 002°38'0 0.0
2017-Nov-03 11:28N 39°34' E 002°38'0 0.0
2017-Nov-03 10:58N 39°34' E 002°38'0 0.0
2017-Nov-03 10:28N 39°34' E 002°38'0 0.0
2017-Nov-03 09:58N 39°34' E 002°38'0 0.0
2017-Nov-03 09:28N 39°34' E 002°38'0 0.0
2017-Nov-03 08:58N 39°34' E 002°38'0 0.0
2017-Nov-03 08:28N 39°34' E 002°38'0 0.0
2017-Nov-03 07:58N 39°34' E 002°38'  
2017-Oct-31 19:33N 39°34' E 002°38'0 0.0
2017-Oct-31 19:30N 39°34' E 002°38'0 0.0
2017-Oct-31 19:00N 39°34' E 002°38'0 0.0
2017-Oct-31 18:30N 39°34' E 002°38'0 0.0
2017-Oct-31 18:00N 39°34' E 002°38'0 0.0
2017-Oct-31 17:30N 39°34' E 002°38'0 0.0
2017-Oct-31 17:00N 39°34' E 002°38'0 0.0
2017-Oct-31 16:27N 39°34' E 002°38'0 0.0
2017-Oct-31 16:00N 39°34' E 002°38'0 0.0
2017-Oct-31 15:30N 39°34' E 002°38'0 0.0
2017-Oct-31 15:00N 39°34' E 002°38'0 0.0
2017-Oct-31 14:30N 39°34' E 002°38'0 0.0
2017-Oct-31 14:00N 39°34' E 002°38'0 0.0
2017-Oct-31 13:30N 39°34' E 002°38'0 0.0
2017-Oct-31 13:00N 39°34' E 002°38'0 0.0
2017-Oct-31 12:30N 39°34' E 002°38'0 0.0
2017-Oct-31 12:00N 39°34' E 002°38'0 0.0
2017-Oct-31 11:30N 39°34' E 002°38'0 0.0
2017-Oct-31 10:57N 39°34' E 002°38'0 0.0
2017-Oct-31 10:30N 39°34' E 002°38'0 0.0
2017-Oct-31 10:00N 39°34' E 002°38'0 0.0
2017-Oct-31 09:23N 39°34' E 002°38'0 0.0
2017-Oct-31 08:59N 39°34' E 002°38'0 0.0
2017-Oct-31 08:29N 39°34' E 002°38'  

Dump ship's entire track history